Archival Weather

Chicago O'Hare International

Chicago, Illinois (KORD)

Report from: Sunday, December 4, 2022 3:51 PM CST
Current time: Friday, June 14, 2024 8:29 AM CDT

Current weather – Weather history – Daily summaries
Weather forecast

Temperature3.9°C (39.0°F)
Wind chill0.2°C (32.3°F)
Dew point-10.0°C (14.0°F)
Winds 9 kts (4.6 m/s, 10.4 mph) Southwest (230°)
Wind gusts 15 kts (7.7 m/s, 17.3 mph)
Visibility10 mi. (16.1 km)
Clouds Few clouds 25,000 ft. (7,620 m)
Altimeter30.06 in.Hg (1018 mB)
Relative humidity35 %
Density altitude-1,479 ft. (-451 m)
Sea-level pressure101.9 kPa (1019 mB, 30.08 in.Hg)
Remarks System requires maintenance
Automated weather observing station with precipitation discriminator
Flight conditions Visual Meteorological Conditions
Raw dataKORD 042151Z 23009G15KT 10SM FEW250 04/M10 A3006 RMK AO2 SLP187 T00391100 $
An error has occurred. This application may no longer respond until reloaded. Reload 🗙